Timeline UpdatesTrip UpdatesNews PostsPvt Posts♥♥Travel TipsAdmin PostsConv PostsFollowed PostsChat RequestsBlog PostsPNR Posts

Disclaimer
Search
 
 
Thu Oct 23, 2014 17:53:09 ISTHomeTrainsΣChainsAtlasPNRForumGalleryNewsFAQTripsMembersLoginFeedback
No Recent News for this Train
Other Trains in the News **new
Latest...
.
Tue Oct 07, 2014 (11:20PM)
⇐ Return Journey: Train# 57624

57623/Kacheguda-Guntur Passenger (UnReserved)

Time-Table HAS CHANGED.
Oct 07 (11:20PM)
Change Departure Station:
Change Arrival Station:
Post a Train Travel TipPost a Train Travel Tip **new
Post a Comment/Question/Picture/VideoPost a Comment/Question/Picture/Video
Pantry/Catering
✕ NO Pantry Car
✓ Catering Avbl
Loco/Rake Reversals
DHNE/Dhone Junction (3);
RSA - Rake Sharing
57623-57640-57639-57624
Rake/Coach Composition
Loco
GTL WDM-3A
News    PNR    Forum    Time-Table    Availability    Fare Chart    Map    Arr/Dep History    Trips    Gallery    ΣChains    X/O    Timeline    
Travel Time: 11h 15m    -2 halts    Distance: 447 km    Avg Speed: 39 km/hr
Type: Passenger
Zone: SCR/South Central
Departs @ 05:10 (Avg 7m late)
Platform# ???
SMTWTFS
Hyderabad Kacheguda/KCG 
Arrives @ 16:25 (Avg 2h 25m late)
Platform# ???
SMTWTFS
Jaggambotla Krishnapuram/JBK 

-2 halts. 62 intermediate Stations between Hyderabad Kacheguda and Jaggambotla Krishnapuram

Show ALL intermediate Stations  Show Old Time-Table

#TrkCodeStation NameX/OArrivesAvgDepartsAvgHaltPFDay#KmSpeedElevZoneAddress
1/==/KCGHyderabad Kacheguda (5)  -04:15 05:10+7--10.048494mSCRHyderabad - 500027, Telangana
2/==/MXTMalakpet (2)X  04:17 05:12+004:18 05:13+01m211.638494mSCRHyderabad, Telangana
3/==/DQRDabirpura (2)  04:20 05:15-04:21 05:16-1m--12.912500mSCRHyderabad, Telangana
4/==/YKAYakutpura (2)  04:22 05:20-04:23 05:21-1m--13.649505mSCRHyderabad, Telangana
5/==/HPGHuppuguda (2)  04:26 05:24-04:27 05:25-1m--16.119520mSCRHyderabad, Telangana
6/=-|FMFalaknuma (3)X  04:30 05:29+1404:31 05:30+171m--17.344523mSCRHyderabad, Telangana
7|--|BDVLBudvel (2)X  04:37 05:39+2004:38 05:40+231m--113.949556mSCRHyderabad, Telangana
8|--|URUmdanagar (3)  04:48 05:48+2704:49 05:49+411m--120.499581mSCRHyderabad, Telangana
9|--|TMXTimmapur (2)  04:59 05:59+4505:00 06:00+1:011m--136.947582mSCRMahabubnagar Dist., Telangana
10|--|SHNRShadnagar (3)X  05:12 06:19+5705:13 06:20+1:071m--151.868648mSCRMahabubnagar Dist., Telangana
11|--|BABRBalanagar (3)  05:20 06:32+1:1205:21 06:33+1:281m--165.465566mSCR, Telangana
12|--|RRGARanga Reddy Guda (1)  05:25 06:38-05:26 06:39-1m1170.861564mSCR, Telangana
13|--|RJAPRajapur (1)  05:31 06:44-05:32 06:45-1m1175.971541mSCR, Telangana
14|--|GLYGollapally (1)X  05:35 06:49+1:2905:36 06:50+1:291m1180.730556mSCR, Telangana
15|--|JCLJadcherla (3)X  05:43 07:05+1:2705:45 07:06+1:302 1m--188.358545mSCR509301, Telangana
16|--|DTPDivitipalli (2)  05:49 07:14+1:3705:50 07:15+1:401m--195.988520mSCRMahbubnagar Dist., Telangana
17|--|YNGYenugonda (1)O  05:54 07:19-05:55 07:20-1m11101.87508mSCRMahabubnagar Dist., Telangana
18|--|MBNRMahbubnagar (3)X  06:05 07:55+1:1106:10 08:00+1:165m--1105.851500mSCRMahbubnagar, Telangana
19|--|MHBTMahbubnagar Town Halt (1)  06:13 08:03-06:14 08:04-1m11108.4137500mSCRMahbubnagar, Telangana
20|--|MQNManyamkonda (1)  06:24 08:09+1:2906:25 08:10+1:321m11119.887410mSCRMahbubnagar Dist., Telangana
21|--|KTKAKotakadra (1)X  06:29 08:13-06:30 08:14-1m11124.273409mSCRMahbubnagar Dist., Telangana
22|--|DKCDevarkadra (1)O  06:40 08:19+1:3506:41 08:20+1:361m11130.394390mSCRMahbubnagar Dist., Telangana
23|--|DKURDokur (1)O  06:45 08:23-06:46 08:24-1m11135.088383mSCRMahbubnagar Dist, Telangana
24|--|KQQKaukuntla (1)  07:00 08:28+1:4207:01 08:29+1:451m11140.975372mSCR, Telangana
25|--|KXIKurumurthi (1)X  07:04 08:33-07:05 08:34-1m11145.973361mSCRMahbubnagar Dist., Telangana
26|--|KONNKonnur (1)O  07:09 08:41-07:10 08:42-1m11154.517346mSCRMahbubnagar Dist., Telangana
27|--|WPRWanaparti Road (2)  07:24 08:59+1:4207:25 09:00+1:431m--1159.349330mSCRMahbubnagar Dist., Telangana
28|--|AJKAjjakolu (1)  07:29 09:05-07:30 09:06-1m11163.350316mSCR, Telangana
29|--|SRNRSriramnagar (2)O  07:44 09:12+1:3707:45 09:13+1:391m--1168.382311mSCRMahbubnagar Dist., Telangana
30|--|ARPLArepalli Halt (1)O  07:49 09:16-07:50 09:17-1m11172.419301mSCRMahbubnagar Dist., Telangana
31|--|GWDGadwal Junction (2)X  08:08 09:44+1:1908:10 09:45+1:242 1m--1180.970327mSCRMahbubnagar Dist., Telangana
32|--|PDOPoodoor (1)  08:19 09:52+1:2808:20 09:53+1:291m11189.178330mSCRMahabubnagar Dist 509125, Telangana
33|--|PDNAPeddadinne (1)X  08:24 09:58-08:25 09:59-1m11195.619319mSCR, Telangana
34|--|IKIItikyala (1)  08:30 10:10+1:1808:31 10:11+1:181m11199.1113324mSCR, Telangana
35|--|VAHValluru Halt  08:39 10:16-08:40 10:17-1m--1208.527317mSCRVallur Road, Telangana
36|--|MOAManopad (1)O  08:45 10:26+1:1108:46 10:27+1:111m11212.659310mSCRMahbubnagar Dist., Telangana
37|--|SBBJSri Bala Brahmeswara Jogulamba Halt (1)  09:00 10:41-09:01 10:42-1m11226.449312mSCRMahabubnagar Dist., Telangana
38|--|ALPRAlampur Road (1)O  09:09 10:45+1:1009:10 10:46+1:111m11228.98308mSCR, Telangana
39|--|KRNTKurnool City (3)  09:55 11:43+5210:00 11:48+505m--1236.274293mSCRKurnool Ph:08518-220110, Andhra Pradesh
40|--|KOLAKotla (1)  10:04 11:50-10:05 11:51-1m11238.641288mSCRKurnool, Andhra Pradesh
41|--|DUUDupadu (1)  10:19 12:03+2310:20 12:04+231m11246.975310mSCRRayalaseema Region, Andhra Pradesh
42|--|UKDUlindakonda (1)  10:29 12:13+2610:30 12:14+291m11258.267329mSCRUlindakonda, Andhra Pradesh
43|--|VDIVeldurti (2)XO  10:38 12:25+3010:39 12:26+331m--1270.460341mSCRVeldurthi, Andhra Pradesh
44|--|BVOBogolu (1)O  10:50 12:35+2910:51 12:36+291m11279.415371mSCRBogolu Station, Andhra Pradesh
45|--|DHNEDhone Junction (3)X↵¶11:30 13:20+2211:50 13:40+1:0820m--1290.561425mSCR518222, Andhra Pradesh
46|--|MLKMalkapuram  12:05 13:53+1:2212:06 13:54+1:231m--1303.770459mSCRKurnool, Andhra Pradesh
47|--|RGMRangapuram  12:16 14:04+1:3012:17 14:05+1:301m--1315.473440mSCRKurnool, Andhra Pradesh
48|--|BMHBetamcherla (2)  12:25 14:14+1:3512:27 14:15+1:352 1m--1326.450425mSCRBetamcherla, Andhra Pradesh
49|--|BEYBugganipalli Cement Nagar  12:33 14:23+1:3812:34 14:24+1:401m--1333.046386mSCRKurnool, Andhra Pradesh
50|--|KEFKrishnama Kona (1)  12:44 14:36+2:4512:45 14:37+2:451m11342.148314mSCRCement Nagar Tammarajupalli Rd, Andhra Pradesh
51|--|PNMPanyam (2)  12:55 14:49+6:1712:56 14:50+6:171m--1351.722227mSCRKurnool Dist., Andhra Pradesh
52|--|NDLNandyal (3)X  13:55 15:30+1:0514:00 15:35+1:075m--1366.696216mSCRPhone Number : 9247019958, Andhra Pradesh
53/==/GNTGuntur Junction (7)  21:00 18:15+1:39---1623.5-37mSCRGuntur, Andhra Pradesh
Scroll to Top
Scroll to Bottom